sensor_id;sensor_type;location;lat;lon;timestamp;pressure;altitude;pressure_sealevel;temperature;humidity
43770;BME280;6597;52.218;9.882;2023-05-14T00:00:20;101185.13;;;10.29;99.18
43770;BME280;6597;52.218;9.882;2023-05-14T00:02:47;101183.47;;;10.25;99.42
43770;BME280;6597;52.218;9.882;2023-05-14T00:05:14;101178.31;;;10.22;99.65
43770;BME280;6597;52.218;9.882;2023-05-14T00:07:40;101189.72;;;10.19;99.80
43770;BME280;6597;52.218;9.882;2023-05-14T00:10:09;101176.59;;;10.19;100.00
43770;BME280;6597;52.218;9.882;2023-05-14T00:12:35;101179.28;;;10.18;99.34
43770;BME280;6597;52.218;9.882;2023-05-14T00:15:02;101181.06;;;10.16;99.62
43770;BME280;6597;52.218;9.882;2023-05-14T00:17:29;101182.94;;;10.12;99.50
43770;BME280;6597;52.218;9.882;2023-05-14T00:19:55;101176.00;;;10.10;98.86
43770;BME280;6597;52.218;9.882;2023-05-14T00:22:23;101180.41;;;10.08;99.33
43770;BME280;6597;52.218;9.882;2023-05-14T00:24:50;101169.09;;;10.06;99.46
43770;BME280;6597;52.218;9.882;2023-05-14T00:27:18;101175.31;;;10.02;100.00
43770;BME280;6597;52.218;9.882;2023-05-14T00:29:44;101164.16;;;9.93;100.00
43770;BME280;6597;52.218;9.882;2023-05-14T00:32:11;101172.31;;;9.83;100.00
43770;BME280;6597;52.218;9.882;2023-05-14T00:34:37;101166.28;;;9.79;100.00
43770;BME280;6597;52.218;9.882;2023-05-14T00:37:04;101166.34;;;9.78;100.00
43770;BME280;6597;52.218;9.882;2023-05-14T00:39:31;101163.81;;;9.73;100.00
43770;BME280;6597;52.218;9.882;2023-05-14T00:41:57;101163.81;;;9.73;100.00
43770;BME280;6597;52.218;9.882;2023-05-14T00:44:25;101162.03;;;9.74;100.00
43770;BME280;6597;52.218;9.882;2023-05-14T00:46:52;101159.56;;;9.67;100.00
43770;BME280;6597;52.218;9.882;2023-05-14T00:49:19;101163.19;;;9.63;100.00
43770;BME280;6597;52.218;9.882;2023-05-14T00:51:46;101161.41;;;9.64;100.00
43770;BME280;6597;52.218;9.882;2023-05-14T00:54:13;101164.09;;;9.62;100.00
43770;BME280;6597;52.218;9.882;2023-05-14T00:56:40;101169.41;;;9.59;99.80
43770;BME280;6597;52.218;9.882;2023-05-14T00:59:08;101168.56;;;9.57;100.00
43770;BME280;6597;52.218;9.882;2023-05-14T01:01:36;101166.13;;;9.51;100.00
43770;BME280;6597;52.218;9.882;2023-05-14T01:04:03;101167.09;;;9.47;100.00
43770;BME280;6597;52.218;9.882;2023-05-14T01:06:49;101161.84;;;9.47;100.00
43770;BME280;6597;52.218;9.882;2023-05-14T01:09:25;101163.66;;;9.45;100.00
43770;BME280;6597;52.218;9.882;2023-05-14T01:11:59;101163.66;;;9.45;100.00
43770;BME280;6597;52.218;9.882;2023-05-14T01:14:34;101159.31;;;9.44;100.00
43770;BME280;6597;52.218;9.882;2023-05-14T01:17:05;101169.78;;;9.44;100.00
43770;BME280;6597;52.218;9.882;2023-05-14T01:19:36;101163.59;;;9.47;100.00
43770;BME280;6597;52.218;9.882;2023-05-14T01:22:06;101154.09;;;9.41;100.00
43770;BME280;6597;52.218;9.882;2023-05-14T01:24:32;101163.56;;;9.48;100.00
43770;BME280;6597;52.218;9.882;2023-05-14T01:27:12;101159.31;;;9.44;100.00
43770;BME280;6597;52.218;9.882;2023-05-14T01:29:45;101158.44;;;9.42;100.00
43770;BME280;6597;52.218;9.882;2023-05-14T01:32:16;101158.44;;;9.42;100.00
43770;BME280;6597;52.218;9.882;2023-05-14T01:34:46;101153.28;;;9.39;100.00
43770;BME280;6597;52.218;9.882;2023-05-14T01:37:16;101160.25;;;9.40;100.00
43770;BME280;6597;52.218;9.882;2023-05-14T01:39:44;101162.91;;;9.39;100.00
43770;BME280;6597;52.218;9.882;2023-05-14T01:42:11;101158.63;;;9.34;100.00
43770;BME280;6597;52.218;9.882;2023-05-14T01:44:38;101157.03;;;9.29;100.00
43770;BME280;6597;52.218;9.882;2023-05-14T01:47:05;101156.19;;;9.27;100.00
43770;BME280;6597;52.218;9.882;2023-05-14T01:49:32;101153.59;;;9.27;100.00
43770;BME280;6597;52.218;9.882;2023-05-14T01:51:58;101150.13;;;9.25;100.00
43770;BME280;6597;52.218;9.882;2023-05-14T01:54:26;101146.72;;;9.21;100.00
43770;BME280;6597;52.218;9.882;2023-05-14T01:56:52;101151.22;;;9.16;100.00
43770;BME280;6597;52.218;9.882;2023-05-14T01:59:19;101148.69;;;9.13;100.00
43770;BME280;6597;52.218;9.882;2023-05-14T02:01:46;101152.19;;;9.12;100.00
43770;BME280;6597;52.218;9.882;2023-05-14T02:04:12;101152.19;;;9.12;100.00
43770;BME280;6597;52.218;9.882;2023-05-14T02:06:40;101142.63;;;9.11;100.00
43770;BME280;6597;52.218;9.882;2023-05-14T02:09:06;101141.75;;;9.11;100.00
43770;BME280;6597;52.218;9.882;2023-05-14T02:11:34;101144.41;;;9.08;100.00
43770;BME280;6597;52.218;9.882;2023-05-14T02:14:01;101140.91;;;9.09;100.00
43770;BME280;6597;52.218;9.882;2023-05-14T02:16:27;101141.16;;;8.98;100.00
43770;BME280;6597;52.218;9.882;2023-05-14T02:18:54;101139.53;;;8.92;100.00
43770;BME280;6597;52.218;9.882;2023-05-14T02:21:20;101143.22;;;8.84;100.00
43770;BME280;6597;52.218;9.882;2023-05-14T02:23:47;101145.19;;;8.72;100.00
43770;BME280;6597;52.218;9.882;2023-05-14T02:26:14;101135.78;;;8.64;100.00
43770;BME280;6597;52.218;9.882;2023-05-14T02:28:42;101134.16;;;8.58;100.00
43770;BME280;6597;52.218;9.882;2023-05-14T02:31:11;101133.38;;;8.55;100.00
43770;BME280;6597;52.218;9.882;2023-05-14T02:33:38;101134.31;;;8.51;100.00
43770;BME280;6597;52.218;9.882;2023-05-14T02:36:05;101134.31;;;8.51;100.00
43770;BME280;6597;52.218;9.882;2023-05-14T02:38:32;101133.47;;;8.50;100.00
43770;BME280;6597;52.218;9.882;2023-05-14T02:40:58;101128.13;;;8.55;100.00
43770;BME280;6597;52.218;9.882;2023-05-14T02:43:25;101129.97;;;8.50;100.00
43770;BME280;6597;52.218;9.882;2023-05-14T02:45:53;101126.53;;;8.48;100.00
43770;BME280;6597;52.218;9.882;2023-05-14T02:48:19;101125.72;;;8.46;100.00
43770;BME280;6597;52.218;9.882;2023-05-14T02:50:46;101126.56;;;8.46;100.00
43770;BME280;6597;52.218;9.882;2023-05-14T02:53:13;101130.03;;;8.48;100.00
43770;BME280;6597;52.218;9.882;2023-05-14T02:55:40;101133.56;;;8.46;100.00
43770;BME280;6597;52.218;9.882;2023-05-14T02:58:06;101135.28;;;8.45;100.00
43770;BME280;6597;52.218;9.882;2023-05-14T03:00:33;101139.72;;;8.41;100.00
43770;BME280;6597;52.218;9.882;2023-05-14T03:03:01;101130.16;;;8.40;100.00
43770;BME280;6597;52.218;9.882;2023-05-14T03:05:27;101140.69;;;8.37;100.00
43770;BME280;6597;52.218;9.882;2023-05-14T03:07:54;101139.84;;;8.35;100.00
43770;BME280;6597;52.218;9.882;2023-05-14T03:10:20;101132.06;;;8.31;100.00
43770;BME280;6597;52.218;9.882;2023-05-14T03:12:47;101133.84;;;8.29;100.00
43770;BME280;6597;52.218;9.882;2023-05-14T03:15:13;101135.66;;;8.25;100.00
43770;BME280;6597;52.218;9.882;2023-05-14T03:17:40;101133.94;;;8.24;100.00
43770;BME280;6597;52.218;9.882;2023-05-14T03:20:09;101127.81;;;8.25;100.00
43770;BME280;6597;52.218;9.882;2023-05-14T03:22:36;101126.94;;;8.26;100.00
43770;BME280;6597;52.218;9.882;2023-05-14T03:25:02;101135.66;;;8.25;100.00
43770;BME280;6597;52.218;9.882;2023-05-14T03:27:29;101128.84;;;8.18;100.00
43770;BME280;6597;52.218;9.882;2023-05-14T03:29:55;101123.00;;;8.04;100.00
43770;BME280;6597;52.218;9.882;2023-05-14T03:32:22;101123.03;;;8.01;100.00
43770;BME280;6597;52.218;9.882;2023-05-14T03:34:48;101123.00;;;8.04;100.00
43770;BME280;6597;52.218;9.882;2023-05-14T03:37:16;101124.63;;;8.09;100.00
43770;BME280;6597;52.218;9.882;2023-05-14T03:39:43;101126.38;;;8.09;100.00
43770;BME280;6597;52.218;9.882;2023-05-14T03:42:09;101122.03;;;8.08;100.00
43770;BME280;6597;52.218;9.882;2023-05-14T03:44:36;101129.03;;;8.06;100.00
43770;BME280;6597;52.218;9.882;2023-05-14T03:47:03;101121.19;;;8.06;100.00
43770;BME280;6597;52.218;9.882;2023-05-14T03:49:30;101129.00;;;8.09;100.00
43770;BME280;6597;52.218;9.882;2023-05-14T03:51:56;101123.75;;;8.09;100.00
43770;BME280;6597;52.218;9.882;2023-05-14T03:54:25;101122.88;;;8.10;100.00
43770;BME280;6597;52.218;9.882;2023-05-14T03:56:52;101119.44;;;8.06;100.00
43770;BME280;6597;52.218;9.882;2023-05-14T03:59:18;101116.00;;;8.04;100.00
43770;BME280;6597;52.218;9.882;2023-05-14T04:01:45;101126.47;;;8.04;100.00
43770;BME280;6597;52.218;9.882;2023-05-14T04:04:11;101114.19;;;8.08;100.00
43770;BME280;6597;52.218;9.882;2023-05-14T04:06:38;101125.44;;;8.13;100.00
43770;BME280;6597;52.218;9.882;2023-05-14T04:09:05;101120.94;;;8.21;100.00
43770;BME280;6597;52.218;9.882;2023-05-14T04:11:32;101119.00;;;8.29;100.00
43770;BME280;6597;52.218;9.882;2023-05-14T04:13:59;101117.13;;;8.37;100.00
43770;BME280;6597;52.218;9.882;2023-05-14T04:16:26;101116.97;;;8.45;100.00
43770;BME280;6597;52.218;9.882;2023-05-14T04:18:52;101109.81;;;8.55;100.00
43770;BME280;6597;52.218;9.882;2023-05-14T04:21:19;101116.66;;;8.60;100.00
43770;BME280;6597;52.218;9.882;2023-05-14T04:23:46;101118.28;;;8.66;100.00
43770;BME280;6597;52.218;9.882;2023-05-14T04:26:12;101114.66;;;8.71;100.00
43770;BME280;6597;52.218;9.882;2023-05-14T04:28:40;101125.94;;;8.75;100.00
43770;BME280;6597;52.218;9.882;2023-05-14T04:31:07;101120.66;;;8.77;100.00
43770;BME280;6597;52.218;9.882;2023-05-14T04:33:33;101118.88;;;8.80;100.00
43770;BME280;6597;52.218;9.882;2023-05-14T04:36:00;101114.44;;;8.84;100.00
43770;BME280;6597;52.218;9.882;2023-05-14T04:38:26;101119.47;;;8.91;100.00
43770;BME280;6597;52.218;9.882;2023-05-14T04:40:53;101115.81;;;8.98;100.00
43770;BME280;6597;52.218;9.882;2023-05-14T04:43:19;101110.38;;;9.08;100.00
43770;BME280;6597;52.218;9.882;2023-05-14T04:45:47;101116.31;;;9.16;100.00
43770;BME280;6597;52.218;9.882;2023-05-14T04:48:14;101119.59;;;9.24;100.00
43770;BME280;6597;52.218;9.882;2023-05-14T04:50:40;101116.72;;;9.34;100.00
43770;BME280;6597;52.218;9.882;2023-05-14T04:53:08;101120.00;;;9.43;100.00
43770;BME280;6597;52.218;9.882;2023-05-14T04:55:35;101115.53;;;9.48;100.00
43770;BME280;6597;52.218;9.882;2023-05-14T04:58:02;101113.78;;;9.48;100.00
43770;BME280;6597;52.218;9.882;2023-05-14T05:00:28;101113.69;;;9.51;100.00
43770;BME280;6597;52.218;9.882;2023-05-14T05:02:56;101117.84;;;9.60;100.00
43770;BME280;6597;52.218;9.882;2023-05-14T05:05:23;101109.69;;;9.71;100.00
43770;BME280;6597;52.218;9.882;2023-05-14T05:07:49;101110.41;;;9.77;100.00
43770;BME280;6597;52.218;9.882;2023-05-14T05:10:16;101111.25;;;9.79;100.00
43770;BME280;6597;52.218;9.882;2023-05-14T05:12:42;101108.50;;;9.84;100.00
43770;BME280;6597;52.218;9.882;2023-05-14T05:15:09;101115.38;;;9.88;100.00
43770;BME280;6597;52.218;9.882;2023-05-14T05:17:36;101116.97;;;9.93;100.00
43770;BME280;6597;52.218;9.882;2023-05-14T05:20:05;101117.53;;;10.05;100.00
43770;BME280;6597;52.218;9.882;2023-05-14T05:22:33;101112.91;;;10.14;100.00
43770;BME280;6597;52.218;9.882;2023-05-14T05:25:00;101116.22;;;10.22;100.00
43770;BME280;6597;52.218;9.882;2023-05-14T05:27:29;101108.06;;;10.32;100.00
43770;BME280;6597;52.218;9.882;2023-05-14T05:29:56;101118.25;;;10.44;100.00
43770;BME280;6597;52.218;9.882;2023-05-14T05:32:22;101113.53;;;10.55;100.00
43770;BME280;6597;52.218;9.882;2023-05-14T05:34:49;101113.34;;;10.61;100.00
43770;BME280;6597;52.218;9.882;2023-05-14T05:37:17;101110.53;;;10.67;100.00
43770;BME280;6597;52.218;9.882;2023-05-14T05:39:44;101116.47;;;10.74;100.00
43770;BME280;6597;52.218;9.882;2023-05-14T05:42:12;101114.47;;;10.82;100.00
43770;BME280;6597;52.218;9.882;2023-05-14T05:44:39;101113.34;;;10.90;100.00
43770;BME280;6597;52.218;9.882;2023-05-14T05:47:05;101109.59;;;10.98;100.00
43770;BME280;6597;52.218;9.882;2023-05-14T05:49:32;101105.75;;;11.09;100.00
43770;BME280;6597;52.218;9.882;2023-05-14T05:51:58;101109.75;;;11.21;100.00
43770;BME280;6597;52.218;9.882;2023-05-14T05:54:26;101104.25;;;11.29;100.00
43770;BME280;6597;52.218;9.882;2023-05-14T05:56:53;101111.78;;;11.39;100.00
43770;BME280;6597;52.218;9.882;2023-05-14T05:59:19;101115.03;;;11.47;100.00
43770;BME280;6597;52.218;9.882;2023-05-14T06:01:46;101105.91;;;11.58;100.00
43770;BME280;6597;52.218;9.882;2023-05-14T06:04:12;101109.03;;;11.69;99.64
43770;BME280;6597;52.218;9.882;2023-05-14T06:06:39;101109.69;;;11.75;98.85
43770;BME280;6597;52.218;9.882;2023-05-14T06:09:05;101109.31;;;11.88;98.39
43770;BME280;6597;52.218;9.882;2023-05-14T06:11:34;101111.50;;;12.00;97.07
43770;BME280;6597;52.218;9.882;2023-05-14T06:14:01;101118.97;;;12.12;96.98
43770;BME280;6597;52.218;9.882;2023-05-14T06:16:27;101114.13;;;12.25;97.30
43770;BME280;6597;52.218;9.882;2023-05-14T06:18:54;101110.78;;;12.44;97.49
43770;BME280;6597;52.218;9.882;2023-05-14T06:21:20;101110.81;;;12.66;97.37
43770;BME280;6597;52.218;9.882;2023-05-14T06:23:47;101109.97;;;12.88;95.94
43770;BME280;6597;52.218;9.882;2023-05-14T06:26:13;101113.88;;;13.01;94.83
43770;BME280;6597;52.218;9.882;2023-05-14T06:28:41;101115.88;;;13.16;93.55
43770;BME280;6597;52.218;9.882;2023-05-14T06:31:08;101115.41;;;13.28;92.97
43770;BME280;6597;52.218;9.882;2023-05-14T06:33:34;101110.31;;;13.46;92.76
43770;BME280;6597;52.218;9.882;2023-05-14T06:36:03;101102.75;;;13.58;91.51
43770;BME280;6597;52.218;9.882;2023-05-14T06:38:30;101106.88;;;13.86;90.71
43770;BME280;6597;52.218;9.882;2023-05-14T06:40:57;101107.44;;;14.13;91.00
43770;BME280;6597;52.218;9.882;2023-05-14T06:43:23;101102.78;;;14.38;90.40
43770;BME280;6597;52.218;9.882;2023-05-14T06:45:51;101096.22;;;14.67;88.98
43770;BME280;6597;52.218;9.882;2023-05-14T06:48:18;101099.69;;;15.05;86.83
43770;BME280;6597;52.218;9.882;2023-05-14T06:50:45;101098.44;;;15.12;84.75
43770;BME280;6597;52.218;9.882;2023-05-14T06:53:12;101095.34;;;15.21;83.89
43770;BME280;6597;52.218;9.882;2023-05-14T06:55:39;101093.13;;;15.48;84.41
43770;BME280;6597;52.218;9.882;2023-05-14T06:58:06;101099.97;;;15.71;82.32
43770;BME280;6597;52.218;9.882;2023-05-14T07:00:33;101100.34;;;15.98;81.45
43770;BME280;6597;52.218;9.882;2023-05-14T07:03:01;101086.34;;;16.12;77.68
43770;BME280;6597;52.218;9.882;2023-05-14T07:05:27;101098.72;;;16.29;76.68
43770;BME280;6597;52.218;9.882;2023-05-14T07:07:54;101095.75;;;16.50;75.78
43770;BME280;6597;52.218;9.882;2023-05-14T07:10:20;101098.78;;;16.60;74.52
43770;BME280;6597;52.218;9.882;2023-05-14T07:12:47;101087.50;;;16.88;74.01
43770;BME280;6597;52.218;9.882;2023-05-14T07:15:14;101093.50;;;17.07;73.22
43770;BME280;6597;52.218;9.882;2023-05-14T07:17:40;101095.91;;;16.80;73.19
43770;BME280;6597;52.218;9.882;2023-05-14T07:20:09;101089.50;;;16.52;74.50
43770;BME280;6597;52.218;9.882;2023-05-14T07:22:36;101083.94;;;16.40;75.11
43770;BME280;6597;52.218;9.882;2023-05-14T07:25:02;101081.22;;;16.42;75.75
43770;BME280;6597;52.218;9.882;2023-05-14T07:27:29;101081.66;;;16.50;75.26
43770;BME280;6597;52.218;9.882;2023-05-14T07:29:56;101082.16;;;16.57;74.67
43770;BME280;6597;52.218;9.882;2023-05-14T07:32:22;101082.16;;;16.57;75.02
43770;BME280;6597;52.218;9.882;2023-05-14T07:34:49;101083.25;;;16.70;75.65
43770;BME280;6597;52.218;9.882;2023-05-14T07:37:17;101079.66;;;17.02;73.81
43770;BME280;6597;52.218;9.882;2023-05-14T07:39:44;101079.22;;;17.26;72.09
43770;BME280;6597;52.218;9.882;2023-05-14T07:42:10;101074.69;;;17.42;72.70
43770;BME280;6597;52.218;9.882;2023-05-14T07:44:37;101073.97;;;17.70;71.66
43770;BME280;6597;52.218;9.882;2023-05-14T07:47:03;101066.06;;;17.98;71.38
43770;BME280;6597;52.218;9.882;2023-05-14T07:49:31;101066.81;;;18.15;70.54
43770;BME280;6597;52.218;9.882;2023-05-14T07:51:58;101061.22;;;18.33;69.86
43770;BME280;6597;52.218;9.882;2023-05-14T07:54:26;101070.97;;;18.61;66.89
43770;BME280;6597;52.218;9.882;2023-05-14T07:56:52;101063.31;;;18.98;66.52
43770;BME280;6597;52.218;9.882;2023-05-14T07:59:19;101058.84;;;18.99;66.03
43770;BME280;6597;52.218;9.882;2023-05-14T08:01:45;101062.16;;;19.02;66.85
43770;BME280;6597;52.218;9.882;2023-05-14T08:04:12;101065.34;;;19.34;66.12
43770;BME280;6597;52.218;9.882;2023-05-14T08:06:40;101061.66;;;19.49;64.94
43770;BME280;6597;52.218;9.882;2023-05-14T08:09:07;101062.56;;;19.63;63.09
43770;BME280;6597;52.218;9.882;2023-05-14T08:11:35;101061.41;;;19.79;63.90
43770;BME280;6597;52.218;9.882;2023-05-14T08:14:01;101053.34;;;19.94;60.88
43770;BME280;6597;52.218;9.882;2023-05-14T08:16:28;101053.44;;;19.92;61.96
43770;BME280;6597;52.218;9.882;2023-05-14T08:18:54;101059.81;;;19.77;62.53
43770;BME280;6597;52.218;9.882;2023-05-14T08:21:21;101063.88;;;19.70;63.22
43770;BME280;6597;52.218;9.882;2023-05-14T08:23:47;101063.56;;;19.47;63.63
43770;BME280;6597;52.218;9.882;2023-05-14T08:26:14;101065.34;;;19.34;62.19
43770;BME280;6597;52.218;9.882;2023-05-14T08:28:42;101057.28;;;19.48;63.18
43770;BME280;6597;52.218;9.882;2023-05-14T08:31:08;101053.53;;;20.03;60.86
43770;BME280;6597;52.218;9.882;2023-05-14T08:33:35;101050.97;;;20.02;58.14
43770;BME280;6597;52.218;9.882;2023-05-14T08:36:02;101057.56;;;19.83;59.91
43770;BME280;6597;52.218;9.882;2023-05-14T08:38:29;101056.50;;;19.61;60.75
43770;BME280;6597;52.218;9.882;2023-05-14T08:40:56;101054.81;;;19.60;60.74
43770;BME280;6597;52.218;9.882;2023-05-14T08:43:26;101049.25;;;19.75;60.28
43770;BME280;6597;52.218;9.882;2023-05-14T08:45:59;101032.88;;;19.94;56.12
43770;BME280;6597;52.218;9.882;2023-05-14T08:48:29;101035.63;;;20.18;54.72
43770;BME280;6597;52.218;9.882;2023-05-14T08:50:58;101026.47;;;20.22;54.39
43770;BME280;6597;52.218;9.882;2023-05-14T08:53:25;101024.53;;;20.49;52.78
43770;BME280;6597;52.218;9.882;2023-05-14T08:55:52;101029.38;;;20.92;52.40
43770;BME280;6597;52.218;9.882;2023-05-14T08:58:19;101021.19;;;21.30;51.38
43770;BME280;6597;52.218;9.882;2023-05-14T09:00:46;101014.84;;;21.55;50.56
43770;BME280;6597;52.218;9.882;2023-05-14T09:03:14;101011.56;;;21.52;52.52
43770;BME280;6597;52.218;9.882;2023-05-14T09:05:41;101018.19;;;21.46;52.57
43770;BME280;6597;52.218;9.882;2023-05-14T09:08:07;101010.13;;;21.24;54.61
43770;BME280;6597;52.218;9.882;2023-05-14T09:10:34;101010.88;;;21.26;54.63
43770;BME280;6597;52.218;9.882;2023-05-14T09:13:01;101007.56;;;21.22;57.10
43770;BME280;6597;52.218;9.882;2023-05-14T09:15:27;101009.97;;;20.90;54.70
43770;BME280;6597;52.218;9.882;2023-05-14T09:17:55;101013.84;;;20.86;55.25
43770;BME280;6597;52.218;9.882;2023-05-14T09:20:23;101004.91;;;20.98;54.41
43770;BME280;6597;52.218;9.882;2023-05-14T09:22:51;101005.38;;;20.92;51.11
43770;BME280;6597;52.218;9.882;2023-05-14T09:25:18;100997.97;;;20.72;51.92
43770;BME280;6597;52.218;9.882;2023-05-14T09:27:45;101003.53;;;20.69;53.00
43770;BME280;6597;52.218;9.882;2023-05-14T09:30:14;101000.06;;;20.56;50.89
43770;BME280;6597;52.218;9.882;2023-05-14T09:32:42;101002.50;;;20.59;53.04
43770;BME280;6597;52.218;9.882;2023-05-14T09:35:11;101002.97;;;20.76;51.79
43770;BME280;6597;52.218;9.882;2023-05-14T09:37:42;100993.84;;;20.92;50.66
43770;BME280;6597;52.218;9.882;2023-05-14T09:40:09;100999.19;;;20.92;50.23
43770;BME280;6597;52.218;9.882;2023-05-14T09:42:36;100990.34;;;21.02;49.90
43770;BME280;6597;52.218;9.882;2023-05-14T09:45:03;100985.50;;;21.07;50.64
43770;BME280;6597;52.218;9.882;2023-05-14T09:47:30;100985.41;;;21.33;48.98
43770;BME280;6597;52.218;9.882;2023-05-14T09:49:56;100976.34;;;21.58;51.75
43770;BME280;6597;52.218;9.882;2023-05-14T09:52:23;100985.13;;;21.93;50.61
43770;BME280;6597;52.218;9.882;2023-05-14T09:54:52;100973.97;;;22.33;46.01
43770;BME280;6597;52.218;9.882;2023-05-14T09:57:18;100978.69;;;22.41;43.47
43770;BME280;6597;52.218;9.882;2023-05-14T09:59:46;100972.50;;;22.29;45.19
43770;BME280;6597;52.218;9.882;2023-05-14T10:02:16;100966.69;;;22.24;46.74
43770;BME280;6597;52.218;9.882;2023-05-14T10:04:46;100967.50;;;22.02;44.91
43770;BME280;6597;52.218;9.882;2023-05-14T10:07:13;100961.69;;;21.86;44.48
43770;BME280;6597;52.218;9.882;2023-05-14T10:09:43;100960.44;;;21.56;46.77
43770;BME280;6597;52.218;9.882;2023-05-14T10:12:13;100968.16;;;21.02;46.11
43770;BME280;6597;52.218;9.882;2023-05-14T10:14:46;100959.72;;;20.84;47.50
43770;BME280;6597;52.218;9.882;2023-05-14T10:17:16;100961.06;;;20.90;48.51
43770;BME280;6597;52.218;9.882;2023-05-14T10:19:49;100959.38;;;20.89;48.26
43770;BME280;6597;52.218;9.882;2023-05-14T10:22:21;100954.31;;;20.97;48.25
43770;BME280;6597;52.218;9.882;2023-05-14T10:24:49;100949.44;;;20.91;48.76
43770;BME280;6597;52.218;9.882;2023-05-14T10:27:18;100947.00;;;20.88;48.93
43770;BME280;6597;52.218;9.882;2023-05-14T10:29:50;100948.72;;;21.24;49.42
43770;BME280;6597;52.218;9.882;2023-05-14T10:32:19;100950.00;;;21.75;46.07
43770;BME280;6597;52.218;9.882;2023-05-14T10:34:46;100937.91;;;22.16;47.66
43770;BME280;6597;52.218;9.882;2023-05-14T10:37:14;100936.59;;;22.43;45.70
43770;BME280;6597;52.218;9.882;2023-05-14T10:39:43;100937.16;;;22.25;42.73
43770;BME280;6597;52.218;9.882;2023-05-14T10:42:11;100933.00;;;21.99;42.81
43770;BME280;6597;52.218;9.882;2023-05-14T10:44:46;100936.44;;;21.90;44.12
43770;BME280;6597;52.218;9.882;2023-05-14T10:47:13;100939.56;;;21.72;44.74
43770;BME280;6597;52.218;9.882;2023-05-14T10:49:40;100934.50;;;21.81;44.32
43770;BME280;6597;52.218;9.882;2023-05-14T10:52:07;100920.75;;;21.85;45.78
43770;BME280;6597;52.218;9.882;2023-05-14T10:54:35;100934.72;;;22.11;41.74
43770;BME280;6597;52.218;9.882;2023-05-14T10:57:02;100928.50;;;22.33;41.44
43770;BME280;6597;52.218;9.882;2023-05-14T10:59:28;100925.00;;;22.64;41.15
43770;BME280;6597;52.218;9.882;2023-05-14T11:01:57;100924.22;;;22.85;41.46
43770;BME280;6597;52.218;9.882;2023-05-14T11:04:23;100924.16;;;22.96;41.16
43770;BME280;6597;52.218;9.882;2023-05-14T11:06:52;100928.72;;;22.73;42.60
43770;BME280;6597;52.218;9.882;2023-05-14T11:09:20;100926.66;;;22.45;41.82
43770;BME280;6597;52.218;9.882;2023-05-14T11:11:46;100922.75;;;22.49;43.60
43770;BME280;6597;52.218;9.882;2023-05-14T11:14:13;100918.03;;;22.84;41.46
43770;BME280;6597;52.218;9.882;2023-05-14T11:16:40;100924.50;;;23.03;41.43
43770;BME280;6597;52.218;9.882;2023-05-14T11:19:08;100912.94;;;23.02;40.27
43770;BME280;6597;52.218;9.882;2023-05-14T11:21:34;100911.31;;;23.11;39.53
43770;BME280;6597;52.218;9.882;2023-05-14T11:24:01;100909.94;;;22.95;41.15
43770;BME280;6597;52.218;9.882;2023-05-14T11:26:30;100903.28;;;22.90;41.88
43770;BME280;6597;52.218;9.882;2023-05-14T11:28:57;100905.88;;;23.01;42.69
43770;BME280;6597;52.218;9.882;2023-05-14T11:31:24;100900.06;;;22.96;41.04
43770;BME280;6597;52.218;9.882;2023-05-14T11:33:51;100900.84;;;23.08;40.41
43770;BME280;6597;52.218;9.882;2023-05-14T11:36:19;100884.69;;;23.09;39.71
43770;BME280;6597;52.218;9.882;2023-05-14T11:38:46;100891.38;;;23.24;40.33
43770;BME280;6597;52.218;9.882;2023-05-14T11:41:14;100878.41;;;23.50;37.84
43770;BME280;6597;52.218;9.882;2023-05-14T11:43:41;100871.38;;;23.80;39.83
43770;BME280;6597;52.218;9.882;2023-05-14T11:46:15;100874.66;;;24.03;38.96
43770;BME280;6597;52.218;9.882;2023-05-14T11:48:42;100876.22;;;24.05;38.21
43770;BME280;6597;52.218;9.882;2023-05-14T11:51:09;100871.56;;;23.98;37.57
43770;BME280;6597;52.218;9.882;2023-05-14T11:53:37;100866.88;;;23.80;40.22
43770;BME280;6597;52.218;9.882;2023-05-14T11:56:03;100862.63;;;23.78;38.29
43770;BME280;6597;52.218;9.882;2023-05-14T11:58:31;100863.34;;;23.89;38.78
43770;BME280;6597;52.218;9.882;2023-05-14T12:00:58;100859.09;;;23.77;37.48
43770;BME280;6597;52.218;9.882;2023-05-14T12:03:24;100854.38;;;23.60;38.44
43770;BME280;6597;52.218;9.882;2023-05-14T12:05:54;100845.97;;;23.44;40.22
43770;BME280;6597;52.218;9.882;2023-05-14T12:08:22;100853.63;;;23.07;40.02
43770;BME280;6597;52.218;9.882;2023-05-14T12:10:53;100851.63;;;23.20;39.43
43770;BME280;6597;52.218;9.882;2023-05-14T12:13:19;100851.13;;;23.56;39.60
43770;BME280;6597;52.218;9.882;2023-05-14T12:15:47;100841.41;;;23.65;37.60
43770;BME280;6597;52.218;9.882;2023-05-14T12:18:18;100844.16;;;23.54;37.85
43770;BME280;6597;52.218;9.882;2023-05-14T12:20:46;100838.16;;;23.62;37.02
43770;BME280;6597;52.218;9.882;2023-05-14T12:23:12;100841.69;;;23.72;36.20
43770;BME280;6597;52.218;9.882;2023-05-14T12:25:39;100834.78;;;23.69;36.04
43770;BME280;6597;52.218;9.882;2023-05-14T12:28:14;100822.34;;;23.38;36.19
43770;BME280;6597;52.218;9.882;2023-05-14T12:30:40;100827.56;;;23.09;37.41
43770;BME280;6597;52.218;9.882;2023-05-14T12:33:07;100820.88;;;23.14;38.17
43770;BME280;6597;52.218;9.882;2023-05-14T12:35:33;100814.47;;;23.36;38.65
43770;BME280;6597;52.218;9.882;2023-05-14T12:38:00;100814.81;;;23.93;36.57
43770;BME280;6597;52.218;9.882;2023-05-14T12:40:27;100815.75;;;24.51;35.28
43770;BME280;6597;52.218;9.882;2023-05-14T12:42:54;100802.41;;;24.88;35.97
43770;BME280;6597;52.218;9.882;2023-05-14T12:45:22;100806.56;;;24.73;37.00
43770;BME280;6597;52.218;9.882;2023-05-14T12:47:48;100806.00;;;24.50;34.17
43770;BME280;6597;52.218;9.882;2023-05-14T12:50:15;100804.69;;;24.15;36.31
43770;BME280;6597;52.218;9.882;2023-05-14T12:52:42;100797.06;;;24.20;35.65
43770;BME280;6597;52.218;9.882;2023-05-14T12:55:08;100793.50;;;24.01;35.47
43770;BME280;6597;52.218;9.882;2023-05-14T12:57:35;100795.84;;;23.65;36.82
43770;BME280;6597;52.218;9.882;2023-05-14T13:00:03;100789.47;;;23.56;39.29